createdAt,value
2023-02-15T00:01:54.339Z,41.03
2023-02-15T00:04:22.981Z,37.28
2023-02-15T00:06:50.564Z,36.67
2023-02-15T00:09:17.544Z,35.85
2023-02-15T00:11:46.196Z,35.40
2023-02-15T00:14:20.352Z,37.45
2023-02-15T00:16:48.459Z,35.78
2023-02-15T00:19:17.191Z,35.88
2023-02-15T00:21:44.848Z,39.53
2023-02-15T00:24:13.982Z,40.10
2023-02-15T00:26:42.267Z,40.85
2023-02-15T00:29:10.747Z,37.00
2023-02-15T00:31:38.147Z,61.85
2023-02-15T00:34:14.265Z,48.97
2023-02-15T00:36:41.724Z,48.85
2023-02-15T00:39:08.777Z,47.60
2023-02-15T00:41:36.539Z,41.92
2023-02-15T00:44:04.809Z,38.63
2023-02-15T00:46:34.627Z,40.92
2023-02-15T00:49:01.629Z,37.70
2023-02-15T00:51:29.025Z,45.60
2023-02-15T00:53:56.520Z,44.83
2023-02-15T00:56:23.585Z,49.00
2023-02-15T00:58:50.429Z,48.70
2023-02-15T01:01:20.399Z,46.72
2023-02-15T01:03:47.888Z,51.15
2023-02-15T01:06:16.488Z,45.22
2023-02-15T01:08:45.060Z,56.95
2023-02-15T01:11:23.033Z,62.17
2023-02-15T01:13:56.673Z,52.72
2023-02-15T01:16:25.796Z,47.22
2023-02-15T01:18:52.819Z,51.95
2023-02-15T01:21:22.873Z,52.83
2023-02-15T01:23:50.273Z,49.72
2023-02-15T01:26:17.812Z,49.33
2023-02-15T01:28:45.348Z,49.95
2023-02-15T01:31:16.061Z,50.63
2023-02-15T01:33:46.523Z,55.78
2023-02-15T01:36:13.766Z,52.33
2023-02-15T01:38:41.152Z,55.03
2023-02-15T01:41:29.852Z,53.65
2023-02-15T01:44:02.767Z,58.88
2023-02-15T01:46:46.562Z,64.70
2023-02-15T01:49:17.746Z,59.28
2023-02-15T01:51:48.480Z,61.35
2023-02-15T01:54:45.925Z,57.40
2023-02-15T01:57:17.977Z,64.07
2023-02-15T01:59:49.713Z,64.47
2023-02-15T02:02:21.822Z,68.20
2023-02-15T02:04:50.839Z,61.40
2023-02-15T02:07:21.794Z,67.43
2023-02-15T02:09:49.786Z,64.22
2023-02-15T02:12:19.120Z,56.83
2023-02-15T02:14:48.236Z,59.22
2023-02-15T02:18:08.300Z,58.42
2023-02-15T02:20:54.046Z,58.65
2023-02-15T02:23:20.834Z,60.47
2023-02-15T02:25:47.524Z,63.92
2023-02-15T02:28:39.488Z,79.82
2023-02-15T02:31:43.250Z,78.63
2023-02-15T02:34:28.670Z,81.85
2023-02-15T02:37:25.725Z,75.78
2023-02-15T02:40:01.599Z,70.35
2023-02-15T02:42:41.203Z,67.50
2023-02-15T02:45:33.372Z,60.03
2023-02-15T02:48:07.411Z,58.63
2023-02-15T02:50:34.582Z,63.78
2023-02-15T02:53:01.484Z,66.72
2023-02-15T02:55:53.251Z,65.68
2023-02-15T02:58:46.062Z,59.97
2023-02-15T03:01:23.592Z,59.38
2023-02-15T03:03:56.844Z,61.03
2023-02-15T03:06:36.953Z,65.60
2023-02-15T03:09:42.778Z,60.03
2023-02-15T03:12:15.808Z,66.07
2023-02-15T03:14:52.906Z,67.68
2023-02-15T03:17:27.513Z,69.63
2023-02-15T03:19:58.857Z,66.40
2023-02-15T03:22:39.351Z,76.07
2023-02-15T03:25:26.416Z,69.18
2023-02-15T03:28:02.328Z,65.50
2023-02-15T03:30:31.333Z,72.60
2023-02-15T03:33:01.106Z,71.97
2023-02-15T03:35:46.821Z,64.90
2023-02-15T03:38:18.878Z,68.30
2023-02-15T03:41:06.829Z,67.75
2023-02-15T03:43:54.409Z,64.63
2023-02-15T03:46:45.967Z,61.72
2023-02-15T03:49:25.748Z,92.68
2023-02-15T03:51:56.641Z,70.30
2023-02-15T03:54:46.048Z,80.43
2023-02-15T03:57:34.282Z,68.60
2023-02-15T04:00:22.680Z,66.55
2023-02-15T04:03:10.267Z,60.35
2023-02-15T04:05:37.571Z,62.22
2023-02-15T04:08:04.981Z,60.83
2023-02-15T04:10:50.264Z,64.43
2023-02-15T04:13:17.235Z,64.07
2023-02-15T04:16:03.103Z,74.60
2023-02-15T04:19:14.912Z,71.03
2023-02-15T04:22:00.621Z,63.58
2023-02-15T04:24:46.092Z,59.83
2023-02-15T04:27:13.152Z,64.80
2023-02-15T04:29:40.148Z,62.80
2023-02-15T04:32:07.794Z,60.47
2023-02-15T04:34:34.909Z,56.63
2023-02-15T04:37:01.860Z,54.65
2023-02-15T04:39:29.029Z,60.75
2023-02-15T04:41:55.869Z,59.55
2023-02-15T04:44:22.764Z,58.95
2023-02-15T04:46:49.706Z,60.80
2023-02-15T04:49:16.970Z,57.28
2023-02-15T04:51:43.808Z,67.43
2023-02-15T04:54:10.752Z,67.97
2023-02-15T04:56:38.926Z,72.25
2023-02-15T04:59:06.123Z,73.43
2023-02-15T05:01:32.958Z,78.07
2023-02-15T05:04:00.561Z,77.75
2023-02-15T05:06:27.339Z,68.80
2023-02-15T05:08:54.462Z,64.35
2023-02-15T05:11:21.441Z,65.25
2023-02-15T05:13:48.339Z,72.57
2023-02-15T05:16:15.697Z,78.18
2023-02-15T05:18:42.764Z,96.63
2023-02-15T05:21:09.846Z,84.47
2023-02-15T05:23:37.341Z,88.50
2023-02-15T05:26:23.115Z,97.00
2023-02-15T05:28:50.249Z,83.25
2023-02-15T05:31:20.840Z,85.63
2023-02-15T05:33:49.016Z,88.45
2023-02-15T05:36:15.885Z,89.88
2023-02-15T05:38:42.994Z,75.90
2023-02-15T05:41:11.614Z,75.50
2023-02-15T05:43:39.690Z,72.97
2023-02-15T05:46:07.615Z,84.57
2023-02-15T05:48:35.732Z,77.20
2023-02-15T05:51:08.562Z,76.47
2023-02-15T05:53:38.389Z,82.80
2023-02-15T05:56:06.859Z,82.32
2023-02-15T05:58:40.288Z,81.70
2023-02-15T06:01:12.125Z,83.28
2023-02-15T06:03:39.781Z,93.72
2023-02-15T06:06:07.845Z,102.30
2023-02-15T06:08:36.298Z,98.70
2023-02-15T06:11:03.705Z,117.82
2023-02-15T06:13:31.621Z,96.85
2023-02-15T06:15:58.619Z,107.72
2023-02-15T06:18:26.884Z,107.43
2023-02-15T06:20:54.464Z,115.70
2023-02-15T06:23:21.889Z,121.72
2023-02-15T06:25:48.866Z,126.60
2023-02-15T06:28:16.039Z,137.52
2023-02-15T06:30:44.239Z,136.60
2023-02-15T06:33:11.566Z,159.88
2023-02-15T06:35:38.490Z,167.73
2023-02-15T06:38:05.527Z,160.98
2023-02-15T06:40:32.281Z,159.25
2023-02-15T06:42:59.281Z,160.07
2023-02-15T06:45:26.299Z,159.43
2023-02-15T06:47:53.320Z,156.63
2023-02-15T06:50:20.253Z,141.38
2023-02-15T06:52:47.581Z,158.27
2023-02-15T06:55:16.772Z,138.13
2023-02-15T06:57:43.568Z,141.90
2023-02-15T07:00:10.930Z,135.27
2023-02-15T07:02:38.119Z,146.40
2023-02-15T07:05:06.477Z,125.75
2023-02-15T07:07:33.843Z,109.13
2023-02-15T07:10:00.673Z,112.90
2023-02-15T07:12:46.935Z,103.57
2023-02-15T07:15:21.745Z,97.57
2023-02-15T07:17:49.571Z,67.85
2023-02-15T07:20:22.594Z,73.65
2023-02-15T07:22:50.524Z,85.35
2023-02-15T07:25:17.834Z,77.28
2023-02-15T07:27:46.266Z,77.13
2023-02-15T07:30:16.467Z,80.13
2023-02-15T07:33:05.282Z,65.50
2023-02-15T07:35:33.346Z,65.35
2023-02-15T07:38:00.510Z,45.67
2023-02-15T07:40:27.439Z,38.78
2023-02-15T07:42:55.957Z,43.47
2023-02-15T07:45:23.450Z,41.75
2023-02-15T07:47:50.360Z,38.20
2023-02-15T07:50:17.646Z,39.45
2023-02-15T07:52:45.808Z,33.95
2023-02-15T07:55:14.098Z,33.63
2023-02-15T07:57:47.793Z,34.85
2023-02-15T08:00:16.874Z,33.42
2023-02-15T08:03:11.061Z,39.88
2023-02-15T08:05:38.929Z,39.58
2023-02-15T08:08:06.711Z,37.45
2023-02-15T08:10:52.918Z,33.80
2023-02-15T08:13:19.934Z,36.05
2023-02-15T08:15:51.284Z,41.95
2023-02-15T08:18:18.364Z,34.83
2023-02-15T08:20:50.974Z,36.75
2023-02-15T08:23:17.886Z,37.63
2023-02-15T08:25:44.923Z,46.47
2023-02-15T08:28:12.263Z,34.40
2023-02-15T08:30:39.058Z,36.95
2023-02-15T08:33:05.980Z,33.88
2023-02-15T08:35:32.789Z,33.75
2023-02-15T08:37:59.671Z,30.92
2023-02-15T08:40:26.528Z,34.08
2023-02-15T08:42:53.511Z,36.13
2023-02-15T08:45:20.370Z,31.02
2023-02-15T08:47:47.563Z,36.40
2023-02-15T08:50:14.595Z,32.40
2023-02-15T08:52:42.058Z,29.80
2023-02-15T08:55:08.992Z,34.70
2023-02-15T08:57:36.727Z,28.67
2023-02-15T09:00:06.196Z,39.33
2023-02-15T09:02:33.669Z,29.30
2023-02-15T09:05:00.598Z,32.13
2023-02-15T09:07:27.656Z,31.75
2023-02-15T09:09:54.409Z,31.13
2023-02-15T09:12:21.419Z,27.65
2023-02-15T09:14:48.301Z,31.65
2023-02-15T09:17:16.157Z,29.63
2023-02-15T09:19:43.021Z,32.55
2023-02-15T09:22:10.722Z,33.67
2023-02-15T09:24:37.618Z,30.08
2023-02-15T09:27:04.549Z,33.60
2023-02-15T09:29:31.447Z,30.45
2023-02-15T09:31:58.318Z,33.30
2023-02-15T09:34:25.349Z,32.85
2023-02-15T09:36:52.989Z,49.30
2023-02-15T09:39:21.779Z,51.13
2023-02-15T09:42:08.961Z,27.60
2023-02-15T09:45:18.602Z,28.35
2023-02-15T09:48:18.465Z,25.05
2023-02-15T09:51:11.421Z,31.65
2023-02-15T09:53:53.782Z,34.95
2023-02-15T09:56:26.601Z,30.88
2023-02-15T09:59:21.006Z,37.80
2023-02-15T10:02:25.906Z,32.05
2023-02-15T10:05:16.426Z,30.92
2023-02-15T10:08:09.784Z,33.63
2023-02-15T10:10:42.528Z,33.63
2023-02-15T10:13:31.892Z,29.98
2023-02-15T10:16:10.966Z,30.58
2023-02-15T10:18:40.672Z,37.05
2023-02-15T10:21:11.256Z,40.28
2023-02-15T10:24:02.762Z,39.40
2023-02-15T10:26:35.100Z,36.58
2023-02-15T10:29:18.397Z,34.88
2023-02-15T10:31:59.035Z,39.65
2023-02-15T10:34:40.407Z,25.92
2023-02-15T10:39:59.473Z,27.00
2023-02-15T10:43:00.777Z,24.83
2023-02-15T10:45:47.036Z,27.70
2023-02-15T10:48:20.206Z,26.75
2023-02-15T10:50:58.166Z,24.85
2023-02-15T10:53:45.211Z,24.65
2023-02-15T10:56:30.572Z,31.23
2023-02-15T10:59:16.482Z,22.30
2023-02-15T11:01:43.690Z,25.02
2023-02-15T11:04:38.476Z,24.80
2023-02-15T11:07:28.037Z,23.95
2023-02-15T11:10:18.380Z,25.40
2023-02-15T11:12:48.334Z,22.73
2023-02-15T11:15:29.187Z,29.88
2023-02-15T11:18:20.725Z,25.33
2023-02-15T11:20:57.338Z,27.75
2023-02-15T11:23:27.802Z,23.15
2023-02-15T11:26:01.365Z,21.63
2023-02-15T11:28:37.887Z,22.30
2023-02-15T11:31:17.009Z,19.98
2023-02-15T11:33:48.838Z,19.63
2023-02-15T11:36:23.950Z,25.73
2023-02-15T11:38:59.110Z,23.55
2023-02-15T11:41:33.154Z,22.58
2023-02-15T11:44:09.606Z,22.40
2023-02-15T11:46:38.333Z,26.67
2023-02-15T11:49:35.155Z,23.48
2023-02-15T11:52:06.082Z,17.80
2023-02-15T11:54:37.077Z,22.08
2023-02-15T11:57:17.135Z,22.83
2023-02-15T11:59:51.790Z,25.88
2023-02-15T12:02:23.549Z,30.98
2023-02-15T12:05:08.200Z,18.35
2023-02-15T12:07:45.148Z,26.77
2023-02-15T12:10:35.060Z,20.52
2023-02-15T12:13:18.902Z,25.40
2023-02-15T12:15:56.184Z,20.02
2023-02-15T12:18:42.356Z,24.80
2023-02-15T12:21:31.661Z,22.20
2023-02-15T12:24:05.409Z,21.83
2023-02-15T12:26:36.198Z,32.38
2023-02-15T12:29:16.338Z,30.83
2023-02-15T12:31:47.647Z,29.10
2023-02-15T12:37:00.590Z,27.83
2023-02-15T12:39:32.392Z,19.38
2023-02-15T12:42:01.660Z,22.35
2023-02-15T12:44:38.121Z,24.00
2023-02-15T12:47:05.126Z,17.05
2023-02-15T12:49:38.817Z,16.88
2023-02-15T12:52:24.063Z,20.15
2023-02-15T12:54:51.927Z,25.48
2023-02-15T12:57:35.375Z,29.50
2023-02-15T13:00:06.998Z,24.15
2023-02-15T13:02:48.794Z,18.77
2023-02-15T13:05:44.076Z,24.70
2023-02-15T13:08:20.363Z,20.15
2023-02-15T13:11:10.867Z,24.10
2023-02-15T13:14:19.078Z,13.57
2023-02-15T13:16:48.744Z,17.75
2023-02-15T13:19:27.501Z,23.30
2023-02-15T13:21:57.882Z,16.33
2023-02-15T13:24:33.476Z,16.08
2023-02-15T13:27:14.500Z,17.13
2023-02-15T13:29:45.858Z,18.15
2023-02-15T13:32:34.908Z,15.57
2023-02-15T13:35:06.125Z,17.65
2023-02-15T13:37:43.632Z,19.10
2023-02-15T13:40:20.878Z,20.23
2023-02-15T13:43:01.041Z,17.70
2023-02-15T13:45:40.178Z,24.27
2023-02-15T13:48:45.017Z,23.23
2023-02-15T13:51:45.666Z,17.75
2023-02-15T13:54:43.363Z,24.27
2023-02-15T13:57:28.571Z,25.55
2023-02-15T14:00:29.517Z,41.38
2023-02-15T14:03:40.383Z,18.58
2023-02-15T14:06:26.101Z,24.95
2023-02-15T14:09:42.408Z,25.23
2023-02-15T14:12:24.840Z,16.23
2023-02-15T14:15:09.822Z,21.58
2023-02-15T14:18:38.246Z,33.25
2023-02-15T14:21:27.804Z,23.67
2023-02-15T14:24:00.726Z,22.75
2023-02-15T14:26:47.424Z,26.00
2023-02-15T14:30:38.107Z,31.30
2023-02-15T14:33:32.628Z,25.15
2023-02-15T14:36:01.897Z,31.77
2023-02-15T14:39:31.298Z,28.08
2023-02-15T14:42:21.731Z,29.30
2023-02-15T14:45:02.524Z,27.40
2023-02-15T14:47:37.543Z,23.67
2023-02-15T14:50:34.755Z,29.67
2023-02-15T14:53:23.978Z,20.63
2023-02-15T14:56:08.563Z,23.58
2023-02-15T14:58:36.194Z,29.92
2023-02-15T15:01:11.478Z,30.83
2023-02-15T15:03:57.403Z,20.23
2023-02-15T15:06:31.517Z,22.95
2023-02-15T15:09:23.577Z,22.35
2023-02-15T15:11:52.898Z,28.55
2023-02-15T15:14:35.179Z,27.15
2023-02-15T15:17:05.089Z,30.88
2023-02-15T15:19:52.240Z,32.85
2023-02-15T15:22:30.618Z,45.42
2023-02-15T15:25:05.393Z,37.88
2023-02-15T15:27:55.707Z,35.65
2023-02-15T15:31:00.638Z,37.22
2023-02-15T15:34:11.414Z,40.03
2023-02-15T15:37:09.202Z,41.88
2023-02-15T15:39:54.628Z,43.60
2023-02-15T15:42:39.411Z,80.40
2023-02-15T15:45:27.471Z,55.72
2023-02-15T15:48:14.596Z,46.80
2023-02-15T15:50:42.786Z,110.65
2023-02-15T15:53:22.418Z,75.45
2023-02-15T15:55:55.185Z,60.20
2023-02-15T15:58:23.863Z,67.18
2023-02-15T16:01:00.506Z,83.53
2023-02-15T16:03:29.306Z,106.05
2023-02-15T16:06:01.409Z,106.80
2023-02-15T16:08:34.983Z,120.30
2023-02-15T16:11:12.055Z,93.78
2023-02-15T16:13:42.338Z,92.55
2023-02-15T16:16:09.696Z,125.90
2023-02-15T16:18:43.366Z,115.40
2023-02-15T16:21:35.687Z,103.43
2023-02-15T16:24:18.633Z,69.47
2023-02-15T16:27:04.707Z,67.88
2023-02-15T16:29:34.204Z,82.75
2023-02-15T16:32:07.740Z,90.70
2023-02-15T16:34:34.802Z,91.20
2023-02-15T16:37:19.406Z,88.55
2023-02-15T16:39:49.131Z,83.00
2023-02-15T16:42:17.967Z,79.53
2023-02-15T16:44:53.379Z,81.40
2023-02-15T16:47:28.221Z,65.88
2023-02-15T16:50:00.732Z,59.03
2023-02-15T16:52:29.127Z,76.18
2023-02-15T16:54:59.261Z,75.43
2023-02-15T16:57:34.041Z,92.03
2023-02-15T17:00:18.007Z,89.18
2023-02-15T17:02:56.917Z,92.88
2023-02-15T17:05:24.308Z,98.43
2023-02-15T17:08:05.946Z,88.28
2023-02-15T17:10:40.222Z,87.80
2023-02-15T17:13:18.000Z,94.63
2023-02-15T17:16:06.113Z,98.85
2023-02-15T17:18:44.711Z,107.88
2023-02-15T17:21:17.789Z,130.95
2023-02-15T17:23:48.368Z,163.32
2023-02-15T17:26:27.857Z,200.65
2023-02-15T17:29:11.976Z,113.63
2023-02-15T17:31:39.505Z,91.57
2023-02-15T17:34:06.859Z,75.63
2023-02-15T17:36:33.797Z,92.95
2023-02-15T17:39:06.672Z,230.32
2023-02-15T17:41:35.852Z,220.48
2023-02-15T17:44:04.000Z,253.57
2023-02-15T17:46:37.238Z,320.77
2023-02-15T17:49:05.390Z,203.05
2023-02-15T17:51:33.368Z,122.30
2023-02-15T17:54:19.135Z,67.32
2023-02-15T17:56:46.298Z,100.43
2023-02-15T17:59:14.356Z,132.68
2023-02-15T18:02:07.204Z,132.35
2023-02-15T18:04:56.224Z,121.15
2023-02-15T18:07:42.459Z,132.95
2023-02-15T18:10:37.248Z,161.98
2023-02-15T18:13:04.753Z,158.00
2023-02-15T18:15:31.930Z,152.75
2023-02-15T18:18:03.264Z,178.23
2023-02-15T18:20:37.268Z,227.55
2023-02-15T18:23:04.278Z,210.55
2023-02-15T18:25:31.103Z,204.63
2023-02-15T18:27:57.954Z,174.48
2023-02-15T18:30:27.738Z,141.90
2023-02-15T18:32:57.328Z,147.60
2023-02-15T18:35:28.626Z,138.45
2023-02-15T18:40:27.423Z,114.80
2023-02-15T18:42:57.030Z,124.22
2023-02-15T18:45:32.985Z,96.65
2023-02-15T18:48:00.314Z,98.28
2023-02-15T18:50:31.291Z,105.85
2023-02-15T18:52:58.883Z,107.90
2023-02-15T18:55:28.088Z,107.95
2023-02-15T18:57:57.417Z,120.82
2023-02-15T19:00:28.886Z,133.30
2023-02-15T19:02:59.452Z,106.85
2023-02-15T19:05:28.484Z,85.35
2023-02-15T19:07:57.380Z,102.63
2023-02-15T19:10:27.203Z,84.35
2023-02-15T19:12:55.947Z,103.90
2023-02-15T19:15:28.492Z,136.48
2023-02-15T19:17:55.563Z,140.02
2023-02-15T19:20:29.891Z,172.70
2023-02-15T19:22:58.374Z,90.18
2023-02-15T19:25:31.545Z,78.20
2023-02-15T19:27:58.946Z,135.55
2023-02-15T19:30:32.335Z,115.32
2023-02-15T19:33:00.067Z,88.43
2023-02-15T19:35:31.829Z,82.28
2023-02-15T19:38:06.265Z,75.00
2023-02-15T19:40:35.875Z,77.45
2023-02-15T19:43:03.965Z,83.70
2023-02-15T19:45:33.001Z,83.65
2023-02-15T19:48:02.981Z,62.63
2023-02-15T19:50:33.448Z,61.80
2023-02-15T19:53:02.866Z,65.05
2023-02-15T19:55:37.996Z,79.05
2023-02-15T19:58:12.148Z,62.15
2023-02-15T20:00:39.922Z,54.00
2023-02-15T20:03:06.725Z,52.90
2023-02-15T20:05:38.320Z,49.42
2023-02-15T20:08:10.176Z,58.80
2023-02-15T20:10:37.178Z,84.45
2023-02-15T20:13:04.081Z,77.18
2023-02-15T20:15:34.547Z,106.32
2023-02-15T20:18:04.455Z,102.13
2023-02-15T20:20:51.772Z,85.82
2023-02-15T20:23:35.766Z,82.82
2023-02-15T20:26:14.038Z,90.00
2023-02-15T20:28:41.141Z,90.47
2023-02-15T20:31:14.834Z,88.82
2023-02-15T20:33:42.120Z,82.88
2023-02-15T20:36:17.141Z,83.88
2023-02-15T20:38:44.764Z,113.75
2023-02-15T20:41:37.208Z,92.28
2023-02-15T20:44:35.842Z,89.10
2023-02-15T20:47:02.883Z,97.68
2023-02-15T20:49:29.689Z,108.50
2023-02-15T20:51:57.331Z,83.43
2023-02-15T20:54:27.235Z,86.20
2023-02-15T20:56:57.318Z,112.90
2023-02-15T20:59:27.496Z,107.40
2023-02-15T21:01:59.317Z,98.88
2023-02-15T21:04:32.363Z,98.53
2023-02-15T21:07:00.726Z,107.07
2023-02-15T21:09:28.264Z,108.90
2023-02-15T21:11:58.274Z,102.40
2023-02-15T21:14:27.294Z,103.40
2023-02-15T21:16:54.204Z,112.60
2023-02-15T21:19:24.523Z,108.95
2023-02-15T21:21:53.338Z,105.97
2023-02-15T21:24:26.925Z,114.10
2023-02-15T21:26:55.114Z,116.10
2023-02-15T21:29:28.044Z,108.03
2023-02-15T21:31:55.305Z,106.50
2023-02-15T21:34:22.116Z,70.10
2023-02-15T21:36:50.826Z,58.45
2023-02-15T21:39:29.533Z,58.92
2023-02-15T21:42:15.110Z,50.05
2023-02-15T21:45:00.909Z,48.70
2023-02-15T21:47:48.720Z,52.20
2023-02-15T21:50:40.031Z,47.63
2023-02-15T21:53:10.735Z,45.05
2023-02-15T21:55:37.724Z,50.45
2023-02-15T21:58:05.989Z,51.10
2023-02-15T22:00:34.109Z,61.35
2023-02-15T22:03:01.999Z,63.92
2023-02-15T22:05:33.233Z,48.50
2023-02-15T22:08:00.818Z,51.92
2023-02-15T22:10:31.619Z,42.30
2023-02-15T22:15:37.204Z,48.73
2023-02-15T22:18:05.572Z,45.95
2023-02-15T22:20:32.528Z,51.38
2023-02-15T22:22:59.518Z,61.03
2023-02-15T22:25:27.415Z,59.22
2023-02-15T22:27:55.009Z,63.38
2023-02-15T22:30:29.577Z,69.63
2023-02-15T22:32:57.644Z,56.40
2023-02-15T22:35:33.056Z,69.10
2023-02-15T22:38:00.447Z,64.60
2023-02-15T22:40:33.527Z,76.78
2023-02-15T22:43:03.095Z,92.18
2023-02-15T22:45:31.478Z,85.80
2023-02-15T22:48:00.816Z,68.95
2023-02-15T22:50:32.571Z,63.47
2023-02-15T22:53:01.356Z,59.42
2023-02-15T22:55:33.799Z,62.22
2023-02-15T22:58:01.150Z,69.80
2023-02-15T23:00:32.311Z,60.00
2023-02-15T23:05:28.940Z,57.20
2023-02-15T23:07:56.227Z,67.03
2023-02-15T23:10:26.112Z,74.15
2023-02-15T23:13:14.680Z,105.35
2023-02-15T23:15:43.538Z,72.25
2023-02-15T23:18:20.577Z,65.43
2023-02-15T23:20:52.357Z,60.63
2023-02-15T23:23:24.927Z,61.83
2023-02-15T23:25:52.015Z,65.45
2023-02-15T23:28:22.065Z,55.80
2023-02-15T23:30:49.693Z,35.80
2023-02-15T23:33:19.237Z,57.80
2023-02-15T23:35:46.378Z,55.00
2023-02-15T23:38:28.731Z,50.95
2023-02-15T23:41:19.831Z,47.05
2023-02-15T23:44:04.791Z,38.75
2023-02-15T23:46:46.899Z,33.63
2023-02-15T23:49:16.601Z,37.67
2023-02-15T23:51:52.085Z,36.08
2023-02-15T23:54:21.631Z,48.90
2023-02-15T23:56:55.177Z,37.28
2023-02-15T23:59:25.395Z,45.63
